Capitol Island, Maine
Current Conditions -  °F | °C
As of 9:53 AM on Tuesday 21 Oct 2014 (Local Time) from KIWI Reporting Station
Overcast Overcast  
Wind Chill: 51°   Ceiling: 3400
Heat Index: 51°   Visibility: 10mi
Dew Point: 45°   Wind: 3mph
Humidity: 80%   Direction: 10°N
Pressure: 30.07"   Gusts: NA
Location:  43.854°N, 69.611°W
Report Text: KIWI 211353Z AUTO 01003KT 10SM SCT022 BKN034 OVC120 11/07 A3007 RMK AO2 SLP182 T01060072
Loading
Personal Weather Stations






























Interactive Weather Map
Tropical Storm Tracking
New forecast layout! Learn more

10-Day Weather Forecast

Advertisements
Track Severe Weather on mobile